sensor_id;sensor_type;location;lat;lon;timestamp;P1;durP1;ratioP1;P2;durP2;ratioP2
78484;SDS011;67773;50.806;8.776;2024-01-15T00:02:18;21.33;;;7.28;;
78484;SDS011;67773;50.806;8.776;2024-01-15T00:04:44;19.53;;;7.30;;
78484;SDS011;67773;50.806;8.776;2024-01-15T00:07:09;18.63;;;7.17;;
78484;SDS011;67773;50.806;8.776;2024-01-15T00:09:35;16.42;;;6.93;;
78484;SDS011;67773;50.806;8.776;2024-01-15T00:12:00;17.90;;;8.18;;
78484;SDS011;67773;50.806;8.776;2024-01-15T00:14:27;20.55;;;7.60;;
78484;SDS011;67773;50.806;8.776;2024-01-15T00:16:52;18.05;;;6.20;;
78484;SDS011;67773;50.806;8.776;2024-01-15T00:19:20;14.93;;;7.07;;
78484;SDS011;67773;50.806;8.776;2024-01-15T00:21:48;20.10;;;7.50;;
78484;SDS011;67773;50.806;8.776;2024-01-15T00:24:14;18.23;;;7.32;;
78484;SDS011;67773;50.806;8.776;2024-01-15T00:26:39;19.45;;;7.78;;
78484;SDS011;67773;50.806;8.776;2024-01-15T00:29:08;21.23;;;6.70;;
78484;SDS011;67773;50.806;8.776;2024-01-15T00:31:34;20.45;;;7.93;;
78484;SDS011;67773;50.806;8.776;2024-01-15T00:33:59;17.85;;;7.00;;
78484;SDS011;67773;50.806;8.776;2024-01-15T00:36:25;15.23;;;7.80;;
78484;SDS011;67773;50.806;8.776;2024-01-15T00:38:50;15.13;;;6.47;;
78484;SDS011;67773;50.806;8.776;2024-01-15T00:41:16;18.88;;;7.60;;
78484;SDS011;67773;50.806;8.776;2024-01-15T00:43:41;19.73;;;7.00;;
78484;SDS011;67773;50.806;8.776;2024-01-15T00:46:07;16.57;;;6.47;;
78484;SDS011;67773;50.806;8.776;2024-01-15T00:48:32;17.43;;;7.03;;
78484;SDS011;67773;50.806;8.776;2024-01-15T00:50:57;18.57;;;7.40;;
78484;SDS011;67773;50.806;8.776;2024-01-15T00:53:23;15.80;;;6.57;;
78484;SDS011;67773;50.806;8.776;2024-01-15T00:55:48;16.20;;;6.65;;
78484;SDS011;67773;50.806;8.776;2024-01-15T00:58:14;17.38;;;6.68;;
78484;SDS011;67773;50.806;8.776;2024-01-15T01:00:40;19.48;;;6.18;;
78484;SDS011;67773;50.806;8.776;2024-01-15T01:03:06;13.30;;;5.97;;
78484;SDS011;67773;50.806;8.776;2024-01-15T01:05:32;13.45;;;5.50;;
78484;SDS011;67773;50.806;8.776;2024-01-15T01:07:58;16.67;;;5.78;;
78484;SDS011;67773;50.806;8.776;2024-01-15T01:10:23;13.50;;;5.67;;
78484;SDS011;67773;50.806;8.776;2024-01-15T01:12:49;13.83;;;5.70;;
78484;SDS011;67773;50.806;8.776;2024-01-15T01:15:14;14.97;;;6.03;;
78484;SDS011;67773;50.806;8.776;2024-01-15T01:17:39;12.63;;;5.70;;
78484;SDS011;67773;50.806;8.776;2024-01-15T01:20:05;13.57;;;4.90;;
78484;SDS011;67773;50.806;8.776;2024-01-15T01:22:33;10.82;;;5.63;;
78484;SDS011;67773;50.806;8.776;2024-01-15T01:24:58;12.32;;;4.45;;
78484;SDS011;67773;50.806;8.776;2024-01-15T01:27:24;13.25;;;5.90;;
78484;SDS011;67773;50.806;8.776;2024-01-15T01:29:49;12.10;;;4.87;;
78484;SDS011;67773;50.806;8.776;2024-01-15T01:32:14;13.97;;;5.60;;
78484;SDS011;67773;50.806;8.776;2024-01-15T01:34:40;11.73;;;5.20;;
78484;SDS011;67773;50.806;8.776;2024-01-15T01:37:07;13.45;;;5.45;;
78484;SDS011;67773;50.806;8.776;2024-01-15T01:39:32;12.15;;;5.47;;
78484;SDS011;67773;50.806;8.776;2024-01-15T01:41:58;12.27;;;5.10;;
78484;SDS011;67773;50.806;8.776;2024-01-15T01:44:23;17.27;;;5.77;;
78484;SDS011;67773;50.806;8.776;2024-01-15T01:46:48;12.77;;;4.90;;
78484;SDS011;67773;50.806;8.776;2024-01-15T01:49:14;10.15;;;4.65;;
78484;SDS011;67773;50.806;8.776;2024-01-15T01:51:40;11.85;;;4.53;;
78484;SDS011;67773;50.806;8.776;2024-01-15T01:54:05;12.07;;;4.43;;
78484;SDS011;67773;50.806;8.776;2024-01-15T01:56:32;10.57;;;4.15;;
78484;SDS011;67773;50.806;8.776;2024-01-15T01:58:59;11.05;;;5.80;;
78484;SDS011;67773;50.806;8.776;2024-01-15T02:01:24;10.02;;;4.05;;
78484;SDS011;67773;50.806;8.776;2024-01-15T02:03:50;10.82;;;4.50;;
78484;SDS011;67773;50.806;8.776;2024-01-15T02:06:15;10.67;;;5.13;;
78484;SDS011;67773;50.806;8.776;2024-01-15T02:08:42;12.38;;;4.43;;
78484;SDS011;67773;50.806;8.776;2024-01-15T02:11:08;14.52;;;5.32;;
78484;SDS011;67773;50.806;8.776;2024-01-15T02:13:33;12.33;;;4.33;;
78484;SDS011;67773;50.806;8.776;2024-01-15T02:15:59;12.80;;;5.03;;
78484;SDS011;67773;50.806;8.776;2024-01-15T02:18:24;9.90;;;4.50;;
78484;SDS011;67773;50.806;8.776;2024-01-15T02:20:49;11.40;;;4.83;;
78484;SDS011;67773;50.806;8.776;2024-01-15T02:23:15;12.60;;;5.73;;
78484;SDS011;67773;50.806;8.776;2024-01-15T02:25:44;12.77;;;5.00;;
78484;SDS011;67773;50.806;8.776;2024-01-15T02:28:11;13.52;;;5.43;;
78484;SDS011;67773;50.806;8.776;2024-01-15T02:30:41;11.95;;;4.93;;
78484;SDS011;67773;50.806;8.776;2024-01-15T02:33:07;8.85;;;4.35;;
78484;SDS011;67773;50.806;8.776;2024-01-15T02:35:33;13.40;;;4.70;;
78484;SDS011;67773;50.806;8.776;2024-01-15T02:38:01;11.30;;;4.47;;
78484;SDS011;67773;50.806;8.776;2024-01-15T02:40:27;12.90;;;5.45;;
78484;SDS011;67773;50.806;8.776;2024-01-15T02:42:53;10.43;;;5.07;;
78484;SDS011;67773;50.806;8.776;2024-01-15T02:45:19;13.30;;;4.90;;
78484;SDS011;67773;50.806;8.776;2024-01-15T02:47:45;13.82;;;5.07;;
78484;SDS011;67773;50.806;8.776;2024-01-15T02:50:10;12.63;;;4.77;;
78484;SDS011;67773;50.806;8.776;2024-01-15T02:52:35;14.23;;;5.67;;
78484;SDS011;67773;50.806;8.776;2024-01-15T02:55:01;13.13;;;5.90;;
78484;SDS011;67773;50.806;8.776;2024-01-15T02:57:26;10.03;;;4.60;;
78484;SDS011;67773;50.806;8.776;2024-01-15T02:59:51;13.07;;;5.07;;
78484;SDS011;67773;50.806;8.776;2024-01-15T03:02:16;12.23;;;5.63;;
78484;SDS011;67773;50.806;8.776;2024-01-15T03:04:45;11.63;;;5.30;;
78484;SDS011;67773;50.806;8.776;2024-01-15T03:07:10;10.82;;;4.93;;
78484;SDS011;67773;50.806;8.776;2024-01-15T03:09:35;12.40;;;4.82;;
78484;SDS011;67773;50.806;8.776;2024-01-15T03:12:01;14.17;;;5.83;;
78484;SDS011;67773;50.806;8.776;2024-01-15T03:14:26;10.37;;;5.37;;
78484;SDS011;67773;50.806;8.776;2024-01-15T03:16:52;13.63;;;4.95;;
78484;SDS011;67773;50.806;8.776;2024-01-15T03:19:18;11.07;;;5.28;;
78484;SDS011;67773;50.806;8.776;2024-01-15T03:21:43;13.60;;;5.70;;
78484;SDS011;67773;50.806;8.776;2024-01-15T03:24:08;14.10;;;6.03;;
78484;SDS011;67773;50.806;8.776;2024-01-15T03:26:34;13.90;;;5.70;;
78484;SDS011;67773;50.806;8.776;2024-01-15T03:28:59;13.77;;;5.70;;
78484;SDS011;67773;50.806;8.776;2024-01-15T03:31:24;12.30;;;5.30;;
78484;SDS011;67773;50.806;8.776;2024-01-15T03:33:49;13.90;;;5.73;;
78484;SDS011;67773;50.806;8.776;2024-01-15T03:36:15;15.60;;;5.63;;
78484;SDS011;67773;50.806;8.776;2024-01-15T03:38:40;13.20;;;5.97;;
78484;SDS011;67773;50.806;8.776;2024-01-15T03:41:06;12.27;;;5.25;;
78484;SDS011;67773;50.806;8.776;2024-01-15T03:43:32;13.95;;;5.30;;
78484;SDS011;67773;50.806;8.776;2024-01-15T03:45:58;14.52;;;5.38;;
78484;SDS011;67773;50.806;8.776;2024-01-15T03:48:23;12.95;;;5.18;;
78484;SDS011;67773;50.806;8.776;2024-01-15T03:50:49;16.75;;;6.32;;
78484;SDS011;67773;50.806;8.776;2024-01-15T03:53:14;13.90;;;5.43;;
78484;SDS011;67773;50.806;8.776;2024-01-15T03:55:39;13.90;;;5.47;;
78484;SDS011;67773;50.806;8.776;2024-01-15T03:58:04;14.73;;;5.57;;
78484;SDS011;67773;50.806;8.776;2024-01-15T04:00:30;15.27;;;5.80;;
78484;SDS011;67773;50.806;8.776;2024-01-15T04:02:55;18.37;;;6.60;;
78484;SDS011;67773;50.806;8.776;2024-01-15T04:05:20;12.60;;;5.40;;
78484;SDS011;67773;50.806;8.776;2024-01-15T04:07:46;11.20;;;5.28;;
78484;SDS011;67773;50.806;8.776;2024-01-15T04:10:11;14.33;;;6.10;;
78484;SDS011;67773;50.806;8.776;2024-01-15T04:12:36;10.23;;;4.83;;
78484;SDS011;67773;50.806;8.776;2024-01-15T04:15:02;13.88;;;5.80;;
78484;SDS011;67773;50.806;8.776;2024-01-15T04:17:28;12.50;;;5.75;;
78484;SDS011;67773;50.806;8.776;2024-01-15T04:19:53;12.43;;;4.90;;
78484;SDS011;67773;50.806;8.776;2024-01-15T04:22:19;13.02;;;5.22;;
78484;SDS011;67773;50.806;8.776;2024-01-15T04:24:45;13.83;;;5.33;;
78484;SDS011;67773;50.806;8.776;2024-01-15T04:27:10;15.17;;;6.33;;
78484;SDS011;67773;50.806;8.776;2024-01-15T04:29:37;16.25;;;6.13;;
78484;SDS011;67773;50.806;8.776;2024-01-15T04:32:04;12.63;;;5.65;;
78484;SDS011;67773;50.806;8.776;2024-01-15T04:34:29;12.95;;;5.53;;
78484;SDS011;67773;50.806;8.776;2024-01-15T04:36:54;10.87;;;4.63;;
78484;SDS011;67773;50.806;8.776;2024-01-15T04:39:20;13.63;;;5.97;;
78484;SDS011;67773;50.806;8.776;2024-01-15T04:41:45;14.23;;;5.53;;
78484;SDS011;67773;50.806;8.776;2024-01-15T04:44:10;11.77;;;4.53;;
78484;SDS011;67773;50.806;8.776;2024-01-15T04:46:36;11.67;;;5.17;;
78484;SDS011;67773;50.806;8.776;2024-01-15T04:49:01;11.77;;;5.10;;
78484;SDS011;67773;50.806;8.776;2024-01-15T04:51:27;13.63;;;4.95;;
78484;SDS011;67773;50.806;8.776;2024-01-15T04:53:52;10.73;;;5.00;;
78484;SDS011;67773;50.806;8.776;2024-01-15T04:56:17;13.83;;;4.80;;
78484;SDS011;67773;50.806;8.776;2024-01-15T04:58:43;13.65;;;5.03;;
78484;SDS011;67773;50.806;8.776;2024-01-15T05:01:08;11.77;;;5.05;;
78484;SDS011;67773;50.806;8.776;2024-01-15T05:03:35;16.23;;;6.93;;
78484;SDS011;67773;50.806;8.776;2024-01-15T05:06:00;14.18;;;5.40;;
78484;SDS011;67773;50.806;8.776;2024-01-15T05:08:25;15.10;;;5.37;;
78484;SDS011;67773;50.806;8.776;2024-01-15T05:10:51;14.35;;;5.32;;
78484;SDS011;67773;50.806;8.776;2024-01-15T05:13:16;14.50;;;5.77;;
78484;SDS011;67773;50.806;8.776;2024-01-15T05:15:41;16.00;;;5.15;;
78484;SDS011;67773;50.806;8.776;2024-01-15T05:18:07;14.15;;;5.28;;
78484;SDS011;67773;50.806;8.776;2024-01-15T05:20:32;13.17;;;4.30;;
78484;SDS011;67773;50.806;8.776;2024-01-15T05:22:57;12.67;;;4.63;;
78484;SDS011;67773;50.806;8.776;2024-01-15T05:25:23;11.87;;;5.30;;
78484;SDS011;67773;50.806;8.776;2024-01-15T05:27:48;15.83;;;5.77;;
78484;SDS011;67773;50.806;8.776;2024-01-15T05:30:14;31.90;;;13.90;;
78484;SDS011;67773;50.806;8.776;2024-01-15T05:32:39;9.63;;;3.75;;
78484;SDS011;67773;50.806;8.776;2024-01-15T05:35:05;12.60;;;5.20;;
78484;SDS011;67773;50.806;8.776;2024-01-15T05:37:30;11.57;;;4.75;;
78484;SDS011;67773;50.806;8.776;2024-01-15T05:39:56;12.20;;;5.27;;
78484;SDS011;67773;50.806;8.776;2024-01-15T05:42:21;10.77;;;5.03;;
78484;SDS011;67773;50.806;8.776;2024-01-15T05:44:46;12.77;;;5.27;;
78484;SDS011;67773;50.806;8.776;2024-01-15T05:47:11;13.77;;;5.23;;
78484;SDS011;67773;50.806;8.776;2024-01-15T05:49:37;11.27;;;5.23;;
78484;SDS011;67773;50.806;8.776;2024-01-15T05:52:02;10.10;;;4.50;;
78484;SDS011;67773;50.806;8.776;2024-01-15T05:54:28;12.35;;;5.07;;
78484;SDS011;67773;50.806;8.776;2024-01-15T05:56:54;12.00;;;4.85;;
78484;SDS011;67773;50.806;8.776;2024-01-15T05:59:19;11.80;;;4.93;;
78484;SDS011;67773;50.806;8.776;2024-01-15T06:01:44;12.13;;;5.73;;
78484;SDS011;67773;50.806;8.776;2024-01-15T06:04:10;12.63;;;5.40;;
78484;SDS011;67773;50.806;8.776;2024-01-15T06:06:35;15.70;;;6.13;;
78484;SDS011;67773;50.806;8.776;2024-01-15T06:09:00;12.53;;;5.53;;
78484;SDS011;67773;50.806;8.776;2024-01-15T06:11:30;15.60;;;6.18;;
78484;SDS011;67773;50.806;8.776;2024-01-15T06:13:56;17.88;;;6.43;;
78484;SDS011;67773;50.806;8.776;2024-01-15T06:16:21;15.13;;;5.70;;
78484;SDS011;67773;50.806;8.776;2024-01-15T06:18:48;15.90;;;5.82;;
78484;SDS011;67773;50.806;8.776;2024-01-15T06:21:14;12.73;;;4.65;;
78484;SDS011;67773;50.806;8.776;2024-01-15T06:23:40;11.88;;;5.60;;
78484;SDS011;67773;50.806;8.776;2024-01-15T06:26:06;11.63;;;5.45;;
78484;SDS011;67773;50.806;8.776;2024-01-15T06:28:31;17.77;;;5.90;;
78484;SDS011;67773;50.806;8.776;2024-01-15T06:30:57;13.25;;;5.85;;
78484;SDS011;67773;50.806;8.776;2024-01-15T06:33:23;12.48;;;5.57;;
78484;SDS011;67773;50.806;8.776;2024-01-15T06:35:48;14.60;;;6.38;;
78484;SDS011;67773;50.806;8.776;2024-01-15T06:38:14;13.27;;;5.25;;
78484;SDS011;67773;50.806;8.776;2024-01-15T06:40:40;14.10;;;5.78;;
78484;SDS011;67773;50.806;8.776;2024-01-15T06:43:10;14.50;;;6.28;;
78484;SDS011;67773;50.806;8.776;2024-01-15T06:45:36;13.00;;;6.00;;
78484;SDS011;67773;50.806;8.776;2024-01-15T06:48:01;14.80;;;5.77;;
78484;SDS011;67773;50.806;8.776;2024-01-15T06:50:26;14.90;;;6.67;;
78484;SDS011;67773;50.806;8.776;2024-01-15T06:52:52;14.40;;;5.70;;
78484;SDS011;67773;50.806;8.776;2024-01-15T06:55:17;12.73;;;5.63;;
78484;SDS011;67773;50.806;8.776;2024-01-15T06:57:42;12.30;;;6.27;;
78484;SDS011;67773;50.806;8.776;2024-01-15T07:00:08;15.63;;;6.50;;
78484;SDS011;67773;50.806;8.776;2024-01-15T07:02:34;16.60;;;6.47;;
78484;SDS011;67773;50.806;8.776;2024-01-15T07:04:59;13.60;;;6.00;;
78484;SDS011;67773;50.806;8.776;2024-01-15T07:07:25;14.37;;;6.07;;
78484;SDS011;67773;50.806;8.776;2024-01-15T07:09:53;13.60;;;5.35;;
78484;SDS011;67773;50.806;8.776;2024-01-15T07:12:19;16.95;;;6.47;;
78484;SDS011;67773;50.806;8.776;2024-01-15T07:14:44;14.47;;;5.77;;
78484;SDS011;67773;50.806;8.776;2024-01-15T07:17:10;13.57;;;5.72;;
78484;SDS011;67773;50.806;8.776;2024-01-15T07:19:35;15.93;;;6.50;;
78484;SDS011;67773;50.806;8.776;2024-01-15T07:22:01;15.45;;;6.57;;
78484;SDS011;67773;50.806;8.776;2024-01-15T07:24:27;12.55;;;6.00;;
78484;SDS011;67773;50.806;8.776;2024-01-15T07:26:52;16.80;;;6.90;;
78484;SDS011;67773;50.806;8.776;2024-01-15T07:29:17;9.80;;;5.27;;
78484;SDS011;67773;50.806;8.776;2024-01-15T07:31:52;13.70;;;5.60;;
78484;SDS011;67773;50.806;8.776;2024-01-15T07:34:18;17.80;;;7.32;;
78484;SDS011;67773;50.806;8.776;2024-01-15T07:36:43;14.38;;;5.57;;
78484;SDS011;67773;50.806;8.776;2024-01-15T07:39:09;13.70;;;6.15;;
78484;SDS011;67773;50.806;8.776;2024-01-15T07:41:35;23.98;;;10.10;;
78484;SDS011;67773;50.806;8.776;2024-01-15T07:44:00;22.13;;;8.27;;
78484;SDS011;67773;50.806;8.776;2024-01-15T07:46:25;16.27;;;5.90;;
78484;SDS011;67773;50.806;8.776;2024-01-15T07:48:51;16.57;;;7.40;;
78484;SDS011;67773;50.806;8.776;2024-01-15T07:51:21;15.18;;;6.38;;
78484;SDS011;67773;50.806;8.776;2024-01-15T07:53:50;14.10;;;6.50;;
78484;SDS011;67773;50.806;8.776;2024-01-15T07:56:17;19.90;;;7.57;;
78484;SDS011;67773;50.806;8.776;2024-01-15T07:58:42;15.27;;;6.50;;
78484;SDS011;67773;50.806;8.776;2024-01-15T08:01:08;13.40;;;6.07;;
78484;SDS011;67773;50.806;8.776;2024-01-15T08:03:33;18.42;;;6.85;;
78484;SDS011;67773;50.806;8.776;2024-01-15T08:05:59;18.67;;;6.40;;
78484;SDS011;67773;50.806;8.776;2024-01-15T08:08:25;15.63;;;6.22;;
78484;SDS011;67773;50.806;8.776;2024-01-15T08:10:51;11.55;;;5.68;;
78484;SDS011;67773;50.806;8.776;2024-01-15T08:13:17;14.68;;;6.43;;
78484;SDS011;67773;50.806;8.776;2024-01-15T08:15:43;14.77;;;5.82;;
78484;SDS011;67773;50.806;8.776;2024-01-15T08:18:08;16.37;;;6.00;;
78484;SDS011;67773;50.806;8.776;2024-01-15T08:20:34;14.93;;;6.13;;
78484;SDS011;67773;50.806;8.776;2024-01-15T08:22:59;15.23;;;6.03;;
78484;SDS011;67773;50.806;8.776;2024-01-15T08:25:25;14.45;;;6.82;;
78484;SDS011;67773;50.806;8.776;2024-01-15T08:27:51;16.45;;;6.97;;
78484;SDS011;67773;50.806;8.776;2024-01-15T08:30:16;14.32;;;5.97;;
78484;SDS011;67773;50.806;8.776;2024-01-15T08:32:43;15.20;;;7.18;;
78484;SDS011;67773;50.806;8.776;2024-01-15T08:35:09;16.48;;;8.07;;
78484;SDS011;67773;50.806;8.776;2024-01-15T08:37:35;16.48;;;6.47;;
78484;SDS011;67773;50.806;8.776;2024-01-15T08:40:00;19.83;;;8.17;;
78484;SDS011;67773;50.806;8.776;2024-01-15T08:42:25;14.68;;;7.75;;
78484;SDS011;67773;50.806;8.776;2024-01-15T08:44:51;16.77;;;7.77;;
78484;SDS011;67773;50.806;8.776;2024-01-15T08:47:16;16.60;;;6.50;;
78484;SDS011;67773;50.806;8.776;2024-01-15T08:49:42;14.68;;;6.88;;
78484;SDS011;67773;50.806;8.776;2024-01-15T08:52:09;13.77;;;6.45;;
78484;SDS011;67773;50.806;8.776;2024-01-15T08:54:34;20.55;;;7.95;;
78484;SDS011;67773;50.806;8.776;2024-01-15T08:56:59;16.07;;;6.73;;
78484;SDS011;67773;50.806;8.776;2024-01-15T08:59:25;16.60;;;6.47;;
78484;SDS011;67773;50.806;8.776;2024-01-15T09:01:51;18.33;;;6.60;;
78484;SDS011;67773;50.806;8.776;2024-01-15T09:04:17;13.35;;;6.72;;
78484;SDS011;67773;50.806;8.776;2024-01-15T09:06:45;16.50;;;6.60;;
78484;SDS011;67773;50.806;8.776;2024-01-15T09:09:11;14.88;;;6.72;;
78484;SDS011;67773;50.806;8.776;2024-01-15T09:11:37;20.15;;;7.15;;
78484;SDS011;67773;50.806;8.776;2024-01-15T09:14:02;19.33;;;7.70;;
78484;SDS011;67773;50.806;8.776;2024-01-15T09:16:28;18.53;;;6.97;;
78484;SDS011;67773;50.806;8.776;2024-01-15T09:18:54;21.98;;;7.47;;
78484;SDS011;67773;50.806;8.776;2024-01-15T09:21:21;18.58;;;7.05;;
78484;SDS011;67773;50.806;8.776;2024-01-15T09:23:47;16.88;;;7.43;;
78484;SDS011;67773;50.806;8.776;2024-01-15T09:26:12;16.57;;;7.83;;
78484;SDS011;67773;50.806;8.776;2024-01-15T09:28:37;16.33;;;6.23;;
78484;SDS011;67773;50.806;8.776;2024-01-15T09:31:03;22.10;;;7.93;;
78484;SDS011;67773;50.806;8.776;2024-01-15T09:33:28;17.42;;;7.63;;
78484;SDS011;67773;50.806;8.776;2024-01-15T09:35:53;12.80;;;6.47;;
78484;SDS011;67773;50.806;8.776;2024-01-15T09:38:19;18.97;;;7.67;;
78484;SDS011;67773;50.806;8.776;2024-01-15T09:40:45;17.10;;;8.07;;
78484;SDS011;67773;50.806;8.776;2024-01-15T09:43:12;18.73;;;7.85;;
78484;SDS011;67773;50.806;8.776;2024-01-15T09:45:38;19.60;;;6.55;;
78484;SDS011;67773;50.806;8.776;2024-01-15T09:48:04;17.38;;;7.70;;
78484;SDS011;67773;50.806;8.776;2024-01-15T09:50:30;19.92;;;6.68;;
78484;SDS011;67773;50.806;8.776;2024-01-15T09:52:55;17.48;;;7.05;;
78484;SDS011;67773;50.806;8.776;2024-01-15T09:55:22;19.27;;;7.15;;
78484;SDS011;67773;50.806;8.776;2024-01-15T09:57:48;15.82;;;6.22;;
78484;SDS011;67773;50.806;8.776;2024-01-15T10:00:17;14.95;;;5.72;;
78484;SDS011;67773;50.806;8.776;2024-01-15T10:02:43;19.08;;;7.15;;
78484;SDS011;67773;50.806;8.776;2024-01-15T10:05:08;19.43;;;6.47;;
78484;SDS011;67773;50.806;8.776;2024-01-15T10:07:34;21.10;;;6.90;;
78484;SDS011;67773;50.806;8.776;2024-01-15T10:10:01;18.63;;;6.78;;
78484;SDS011;67773;50.806;8.776;2024-01-15T10:12:28;17.10;;;6.82;;
78484;SDS011;67773;50.806;8.776;2024-01-15T10:14:53;14.57;;;6.18;;
78484;SDS011;67773;50.806;8.776;2024-01-15T10:17:19;14.18;;;6.25;;
78484;SDS011;67773;50.806;8.776;2024-01-15T10:19:47;14.38;;;5.35;;
78484;SDS011;67773;50.806;8.776;2024-01-15T10:22:16;14.40;;;5.95;;
78484;SDS011;67773;50.806;8.776;2024-01-15T10:24:42;16.58;;;7.05;;
78484;SDS011;67773;50.806;8.776;2024-01-15T10:27:08;13.70;;;6.07;;
78484;SDS011;67773;50.806;8.776;2024-01-15T10:29:34;13.63;;;6.20;;
78484;SDS011;67773;50.806;8.776;2024-01-15T10:32:00;13.32;;;6.38;;
78484;SDS011;67773;50.806;8.776;2024-01-15T10:34:26;16.83;;;6.10;;
78484;SDS011;67773;50.806;8.776;2024-01-15T10:36:51;13.05;;;6.05;;
78484;SDS011;67773;50.806;8.776;2024-01-15T10:39:24;14.32;;;6.60;;
78484;SDS011;67773;50.806;8.776;2024-01-15T10:41:50;16.13;;;6.57;;
78484;SDS011;67773;50.806;8.776;2024-01-15T10:44:18;16.65;;;6.50;;
78484;SDS011;67773;50.806;8.776;2024-01-15T10:46:45;16.52;;;5.97;;
78484;SDS011;67773;50.806;8.776;2024-01-15T10:49:13;13.25;;;5.90;;
78484;SDS011;67773;50.806;8.776;2024-01-15T10:51:39;13.93;;;5.78;;
78484;SDS011;67773;50.806;8.776;2024-01-15T10:54:04;14.35;;;6.55;;
78484;SDS011;67773;50.806;8.776;2024-01-15T10:56:31;12.57;;;5.80;;
78484;SDS011;67773;50.806;8.776;2024-01-15T10:58:58;13.93;;;5.55;;
78484;SDS011;67773;50.806;8.776;2024-01-15T11:01:24;15.57;;;6.40;;
78484;SDS011;67773;50.806;8.776;2024-01-15T11:03:50;12.23;;;6.15;;
78484;SDS011;67773;50.806;8.776;2024-01-15T11:06:16;12.98;;;5.07;;
78484;SDS011;67773;50.806;8.776;2024-01-15T11:08:47;16.10;;;6.38;;
78484;SDS011;67773;50.806;8.776;2024-01-15T11:11:15;14.88;;;5.65;;
78484;SDS011;67773;50.806;8.776;2024-01-15T11:13:41;11.82;;;5.72;;
78484;SDS011;67773;50.806;8.776;2024-01-15T11:16:10;12.63;;;5.63;;
78484;SDS011;67773;50.806;8.776;2024-01-15T11:23:47;12.73;;;5.43;;
78484;SDS011;67773;50.806;8.776;2024-01-15T11:26:29;18.30;;;6.82;;
78484;SDS011;67773;50.806;8.776;2024-01-15T11:29:28;15.00;;;6.28;;
78484;SDS011;67773;50.806;8.776;2024-01-15T11:34:20;13.33;;;5.63;;
78484;SDS011;67773;50.806;8.776;2024-01-15T11:41:54;13.13;;;5.78;;
78484;SDS011;67773;50.806;8.776;2024-01-15T11:44:20;13.90;;;6.05;;
78484;SDS011;67773;50.806;8.776;2024-01-15T11:46:49;11.10;;;5.35;;
78484;SDS011;67773;50.806;8.776;2024-01-15T11:52:16;10.35;;;4.82;;
78484;SDS011;67773;50.806;8.776;2024-01-15T11:54:53;15.30;;;6.13;;
78484;SDS011;67773;50.806;8.776;2024-01-15T11:58:08;11.32;;;5.20;;
78484;SDS011;67773;50.806;8.776;2024-01-15T12:00:19;13.68;;;5.95;;
78484;SDS011;67773;50.806;8.776;2024-01-15T12:02:46;13.35;;;5.40;;
78484;SDS011;67773;50.806;8.776;2024-01-15T12:05:13;13.73;;;5.85;;
78484;SDS011;67773;50.806;8.776;2024-01-15T12:07:43;14.63;;;6.40;;
78484;SDS011;67773;50.806;8.776;2024-01-15T12:10:10;15.07;;;6.70;;
78484;SDS011;67773;50.806;8.776;2024-01-15T12:15:38;10.25;;;4.38;;
78484;SDS011;67773;50.806;8.776;2024-01-15T12:18:07;9.85;;;4.82;;
78484;SDS011;67773;50.806;8.776;2024-01-15T12:20:33;13.77;;;5.22;;
78484;SDS011;67773;50.806;8.776;2024-01-15T12:22:59;11.55;;;5.38;;
78484;SDS011;67773;50.806;8.776;2024-01-15T12:25:25;15.02;;;5.20;;
78484;SDS011;67773;50.806;8.776;2024-01-15T12:27:54;9.95;;;4.47;;
78484;SDS011;67773;50.806;8.776;2024-01-15T12:30:20;11.73;;;5.28;;
78484;SDS011;67773;50.806;8.776;2024-01-15T12:32:46;20.08;;;9.15;;
78484;SDS011;67773;50.806;8.776;2024-01-15T12:35:12;11.07;;;5.22;;
78484;SDS011;67773;50.806;8.776;2024-01-15T12:37:39;10.75;;;5.85;;
78484;SDS011;67773;50.806;8.776;2024-01-15T12:40:05;15.07;;;4.43;;
78484;SDS011;67773;50.806;8.776;2024-01-15T12:42:41;11.82;;;5.40;;
78484;SDS011;67773;50.806;8.776;2024-01-15T12:45:07;8.95;;;4.50;;
78484;SDS011;67773;50.806;8.776;2024-01-15T12:47:33;9.27;;;5.00;;
78484;SDS011;67773;50.806;8.776;2024-01-15T12:49:59;14.02;;;7.50;;
78484;SDS011;67773;50.806;8.776;2024-01-15T12:52:27;9.57;;;4.35;;
78484;SDS011;67773;50.806;8.776;2024-01-15T12:54:53;9.50;;;4.45;;
78484;SDS011;67773;50.806;8.776;2024-01-15T12:57:19;7.05;;;3.70;;
78484;SDS011;67773;50.806;8.776;2024-01-15T12:59:45;11.65;;;5.07;;
78484;SDS011;67773;50.806;8.776;2024-01-15T13:02:11;7.57;;;3.67;;
78484;SDS011;67773;50.806;8.776;2024-01-15T13:04:37;10.20;;;3.38;;
78484;SDS011;67773;50.806;8.776;2024-01-15T13:07:03;2.67;;;1.85;;
78484;SDS011;67773;50.806;8.776;2024-01-15T13:09:29;2.72;;;1.55;;
78484;SDS011;67773;50.806;8.776;2024-01-15T13:11:55;3.88;;;2.25;;
78484;SDS011;67773;50.806;8.776;2024-01-15T13:14:21;3.95;;;1.50;;
78484;SDS011;67773;50.806;8.776;2024-01-15T13:16:46;3.00;;;1.20;;
78484;SDS011;67773;50.806;8.776;2024-01-15T13:19:12;3.85;;;1.63;;
78484;SDS011;67773;50.806;8.776;2024-01-15T13:21:38;1.63;;;1.17;;
78484;SDS011;67773;50.806;8.776;2024-01-15T13:24:05;1.85;;;0.95;;
78484;SDS011;67773;50.806;8.776;2024-01-15T13:26:34;2.22;;;1.02;;
78484;SDS011;67773;50.806;8.776;2024-01-15T13:29:03;1.60;;;1.00;;
78484;SDS011;67773;50.806;8.776;2024-01-15T13:31:28;1.90;;;0.80;;
78484;SDS011;67773;50.806;8.776;2024-01-15T13:33:54;1.30;;;0.77;;
78484;SDS011;67773;50.806;8.776;2024-01-15T13:36:21;2.30;;;0.88;;
78484;SDS011;67773;50.806;8.776;2024-01-15T13:38:48;1.40;;;0.80;;
78484;SDS011;67773;50.806;8.776;2024-01-15T13:41:14;1.75;;;0.90;;
78484;SDS011;67773;50.806;8.776;2024-01-15T13:43:40;2.13;;;0.90;;
78484;SDS011;67773;50.806;8.776;2024-01-15T13:46:05;1.83;;;0.98;;
78484;SDS011;67773;50.806;8.776;2024-01-15T13:48:31;2.10;;;1.10;;
78484;SDS011;67773;50.806;8.776;2024-01-15T13:50:59;1.20;;;0.77;;
78484;SDS011;67773;50.806;8.776;2024-01-15T13:53:24;2.40;;;1.30;;
78484;SDS011;67773;50.806;8.776;2024-01-15T13:55:51;1.50;;;0.90;;
78484;SDS011;67773;50.806;8.776;2024-01-15T13:58:16;1.67;;;0.90;;
78484;SDS011;67773;50.806;8.776;2024-01-15T14:00:43;1.58;;;0.93;;
78484;SDS011;67773;50.806;8.776;2024-01-15T14:03:08;1.90;;;1.05;;
78484;SDS011;67773;50.806;8.776;2024-01-15T14:05:34;1.60;;;0.80;;
78484;SDS011;67773;50.806;8.776;2024-01-15T14:07:59;1.93;;;0.90;;
78484;SDS011;67773;50.806;8.776;2024-01-15T14:10:25;2.20;;;1.25;;
78484;SDS011;67773;50.806;8.776;2024-01-15T14:12:50;2.73;;;1.17;;
78484;SDS011;67773;50.806;8.776;2024-01-15T14:15:15;3.27;;;0.93;;
78484;SDS011;67773;50.806;8.776;2024-01-15T14:17:41;2.65;;;1.17;;
78484;SDS011;67773;50.806;8.776;2024-01-15T14:20:06;1.23;;;0.80;;
78484;SDS011;67773;50.806;8.776;2024-01-15T14:22:34;2.50;;;1.20;;
78484;SDS011;67773;50.806;8.776;2024-01-15T14:24:59;3.73;;;1.37;;
78484;SDS011;67773;50.806;8.776;2024-01-15T14:27:25;2.83;;;1.10;;
78484;SDS011;67773;50.806;8.776;2024-01-15T14:29:51;4.45;;;1.40;;
78484;SDS011;67773;50.806;8.776;2024-01-15T14:32:16;4.07;;;1.50;;
78484;SDS011;67773;50.806;8.776;2024-01-15T14:34:41;7.27;;;1.83;;
78484;SDS011;67773;50.806;8.776;2024-01-15T14:37:07;2.15;;;1.20;;
78484;SDS011;67773;50.806;8.776;2024-01-15T14:39:32;6.97;;;3.00;;
78484;SDS011;67773;50.806;8.776;2024-01-15T14:41:59;7.90;;;1.98;;
78484;SDS011;67773;50.806;8.776;2024-01-15T14:44:25;3.35;;;1.63;;
78484;SDS011;67773;50.806;8.776;2024-01-15T14:46:50;4.03;;;1.87;;
78484;SDS011;67773;50.806;8.776;2024-01-15T14:49:15;4.07;;;1.60;;